createdAt,value
2023-03-05T00:01:20.339Z,6.90
2023-03-05T00:03:47.400Z,6.90
2023-03-05T00:06:14.820Z,6.90
2023-03-05T00:08:41.996Z,6.90
2023-03-05T00:11:11.368Z,6.80
2023-03-05T00:13:38.977Z,6.80
2023-03-05T00:16:08.957Z,6.80
2023-03-05T00:18:36.973Z,6.80
2023-03-05T00:21:04.924Z,6.80
2023-03-05T00:23:32.123Z,6.80
2023-03-05T00:26:02.504Z,6.70
2023-03-05T00:28:29.519Z,6.70
2023-03-05T00:31:03.100Z,6.70
2023-03-05T00:33:31.089Z,6.70
2023-03-05T00:36:01.736Z,6.70
2023-03-05T00:38:28.899Z,6.70
2023-03-05T00:40:55.853Z,6.70
2023-03-05T00:43:22.886Z,6.70
2023-03-05T00:45:49.889Z,6.70
2023-03-05T00:48:17.083Z,6.70
2023-03-05T00:50:44.392Z,6.60
2023-03-05T00:53:11.578Z,6.60
2023-03-05T00:55:38.618Z,6.60
2023-03-05T00:58:05.795Z,6.60
2023-03-05T01:00:32.750Z,6.60
2023-03-05T01:02:59.714Z,6.50
2023-03-05T01:05:26.775Z,6.50
2023-03-05T01:07:56.207Z,6.50
2023-03-05T01:10:28.054Z,6.50
2023-03-05T01:12:55.920Z,6.50
2023-03-05T01:15:23.712Z,6.40
2023-03-05T01:17:51.028Z,6.40
2023-03-05T01:20:20.485Z,6.40
2023-03-05T01:22:47.638Z,6.40
2023-03-05T01:25:15.911Z,6.40
2023-03-05T01:27:42.949Z,6.40
2023-03-05T01:30:12.631Z,6.40
2023-03-05T01:32:40.076Z,6.40
2023-03-05T01:35:07.618Z,6.40
2023-03-05T01:37:34.614Z,6.30
2023-03-05T01:40:01.628Z,6.30
2023-03-05T01:42:28.917Z,6.30
2023-03-05T01:45:04.281Z,6.30
2023-03-05T01:47:31.200Z,6.30
2023-03-05T01:49:58.343Z,6.30
2023-03-05T01:52:28.826Z,6.30
2023-03-05T01:55:09.926Z,6.30
2023-03-05T01:57:43.481Z,6.20
2023-03-05T02:00:16.567Z,6.20
2023-03-05T02:02:45.756Z,6.20
2023-03-05T02:05:27.033Z,6.20
2023-03-05T02:07:59.860Z,6.20
2023-03-05T02:10:30.840Z,6.20
2023-03-05T02:13:04.629Z,6.20
2023-03-05T02:15:33.488Z,6.10
2023-03-05T02:18:01.458Z,6.10
2023-03-05T02:20:31.957Z,6.10
2023-03-05T02:22:59.061Z,6.10
2023-03-05T02:25:28.868Z,6.10
2023-03-05T02:28:16.319Z,6.10
2023-03-05T02:30:43.844Z,6.10
2023-03-05T02:33:11.219Z,6.10
2023-03-05T02:35:39.643Z,6.10
2023-03-05T02:38:07.128Z,6.00
2023-03-05T02:40:34.085Z,6.00
2023-03-05T02:43:01.250Z,6.00
2023-03-05T02:45:28.608Z,6.00
2023-03-05T02:47:55.745Z,6.00
2023-03-05T02:50:23.775Z,6.00
2023-03-05T02:52:50.998Z,6.00
2023-03-05T02:55:18.786Z,5.90
2023-03-05T02:57:47.031Z,5.90
2023-03-05T03:00:14.571Z,5.90
2023-03-05T03:02:41.795Z,5.90
2023-03-05T03:05:09.734Z,5.90
2023-03-05T03:07:36.825Z,5.90
2023-03-05T03:10:05.432Z,5.90
2023-03-05T03:12:36.545Z,5.90
2023-03-05T03:15:03.672Z,5.90
2023-03-05T03:17:31.201Z,5.90
2023-03-05T03:19:58.109Z,5.80
2023-03-05T03:22:25.021Z,5.80
2023-03-05T03:24:51.956Z,5.80
2023-03-05T03:27:19.044Z,5.80
2023-03-05T03:29:46.170Z,5.80
2023-03-05T03:32:13.271Z,5.80
2023-03-05T03:34:40.319Z,5.80
2023-03-05T03:37:09.278Z,5.80
2023-03-05T03:39:37.102Z,5.80
2023-03-05T03:42:08.995Z,5.70
2023-03-05T03:44:36.019Z,5.70
2023-03-05T03:47:03.236Z,5.80
2023-03-05T03:49:30.272Z,5.70
2023-03-05T03:51:58.353Z,5.70
2023-03-05T03:54:25.690Z,5.70
2023-03-05T03:56:52.978Z,5.70
2023-03-05T03:59:20.242Z,5.70
2023-03-05T04:01:47.949Z,5.80
2023-03-05T04:04:15.335Z,5.80
2023-03-05T04:06:42.661Z,5.80
2023-03-05T04:09:10.197Z,5.80
2023-03-05T04:11:38.024Z,5.80
2023-03-05T04:14:05.552Z,5.80
2023-03-05T04:16:32.916Z,5.80
2023-03-05T04:19:00.035Z,5.80
2023-03-05T04:21:27.187Z,5.80
2023-03-05T04:23:54.187Z,5.80
2023-03-05T04:26:22.120Z,5.80
2023-03-05T04:28:49.402Z,5.80
2023-03-05T04:31:17.411Z,5.80
2023-03-05T04:33:44.557Z,5.80
2023-03-05T04:36:11.745Z,5.80
2023-03-05T04:38:38.790Z,5.70
2023-03-05T04:41:05.915Z,5.70
2023-03-05T04:43:33.689Z,5.70
2023-03-05T04:46:00.978Z,5.70
2023-03-05T04:48:27.990Z,5.70
2023-03-05T04:50:57.798Z,5.70
2023-03-05T04:53:26.328Z,5.70
2023-03-05T04:55:54.989Z,5.70
2023-03-05T04:58:22.800Z,5.60
2023-03-05T05:00:49.719Z,5.60
2023-03-05T05:03:16.860Z,5.60
2023-03-05T05:05:43.828Z,5.60
2023-03-05T05:08:11.215Z,5.50
2023-03-05T05:10:41.518Z,5.50
2023-03-05T05:13:08.621Z,5.50
2023-03-05T05:15:35.566Z,5.50
2023-03-05T05:18:02.485Z,5.50
2023-03-05T05:20:29.710Z,5.40
2023-03-05T05:22:56.723Z,5.40
2023-03-05T05:25:23.893Z,5.40
2023-03-05T05:27:50.862Z,5.40
2023-03-05T05:30:17.898Z,5.40
2023-03-05T05:32:44.841Z,5.40
2023-03-05T05:35:12.048Z,5.40
2023-03-05T05:37:39.071Z,5.40
2023-03-05T05:40:08.436Z,5.40
2023-03-05T05:42:35.590Z,5.40
2023-03-05T05:45:03.148Z,5.40
2023-03-05T05:47:30.260Z,5.40
2023-03-05T05:49:57.661Z,5.40
2023-03-05T05:52:24.571Z,5.40
2023-03-05T05:54:51.525Z,5.30
2023-03-05T05:57:18.502Z,5.30
2023-03-05T05:59:45.506Z,5.30
2023-03-05T06:02:12.623Z,5.30
2023-03-05T06:04:40.416Z,5.30
2023-03-05T06:07:08.730Z,5.30
2023-03-05T06:09:36.659Z,5.30
2023-03-05T06:12:04.240Z,5.30
2023-03-05T06:14:31.153Z,5.30
2023-03-05T06:16:58.167Z,5.30
2023-03-05T06:19:25.244Z,5.30
2023-03-05T06:21:52.295Z,5.30
2023-03-05T06:24:19.526Z,5.30
2023-03-05T06:26:48.603Z,5.30
2023-03-05T06:29:18.123Z,5.30
2023-03-05T06:31:45.458Z,5.30
2023-03-05T06:34:12.356Z,5.40
2023-03-05T06:36:40.588Z,5.40
2023-03-05T06:39:07.866Z,5.40
2023-03-05T06:41:35.201Z,5.40
2023-03-05T06:44:03.216Z,5.40
2023-03-05T06:46:32.283Z,5.40
2023-03-05T06:49:02.321Z,5.40
2023-03-05T06:51:35.073Z,5.50
2023-03-05T06:54:07.910Z,5.50
2023-03-05T06:56:40.387Z,5.50
2023-03-05T06:59:09.036Z,5.50
2023-03-05T07:01:36.293Z,5.50
2023-03-05T07:04:04.489Z,5.50
2023-03-05T07:06:38.693Z,5.50
2023-03-05T07:09:07.684Z,5.60
2023-03-05T07:11:35.238Z,5.60
2023-03-05T07:14:02.793Z,5.60
2023-03-05T07:16:32.903Z,5.60
2023-03-05T07:19:02.936Z,5.60
2023-03-05T07:21:33.413Z,5.60
2023-03-05T07:24:02.423Z,5.50
2023-03-05T07:26:30.992Z,5.50
2023-03-05T07:28:59.073Z,5.50
2023-03-05T07:31:32.848Z,5.50
2023-03-05T07:34:01.888Z,5.40
2023-03-05T07:36:29.314Z,5.40
2023-03-05T07:38:57.489Z,5.40
2023-03-05T07:41:25.658Z,5.40
2023-03-05T07:43:54.724Z,5.40
2023-03-05T07:46:25.172Z,5.40
2023-03-05T07:48:54.706Z,5.40
2023-03-05T07:51:23.457Z,5.50
2023-03-05T07:53:52.086Z,5.50
2023-03-05T07:56:26.415Z,5.50
2023-03-05T07:58:54.467Z,5.50
2023-03-05T08:01:22.739Z,5.50
2023-03-05T08:03:49.947Z,5.50
2023-03-05T08:06:17.413Z,5.50
2023-03-05T08:08:44.466Z,5.50
2023-03-05T08:11:13.938Z,5.50
2023-03-05T08:13:42.128Z,5.50
2023-03-05T08:16:12.443Z,5.50
2023-03-05T08:18:39.471Z,5.50
2023-03-05T08:21:23.971Z,5.50
2023-03-05T08:23:51.289Z,5.50
2023-03-05T08:26:21.522Z,5.50
2023-03-05T08:28:49.312Z,5.50
2023-03-05T08:31:18.235Z,5.40
2023-03-05T08:33:45.557Z,5.40
2023-03-05T08:36:13.453Z,5.50
2023-03-05T08:38:42.246Z,5.50
2023-03-05T08:41:09.349Z,5.50
2023-03-05T08:43:36.951Z,5.50
2023-03-05T08:46:04.513Z,5.60
2023-03-05T08:48:32.215Z,5.60
2023-03-05T08:51:12.949Z,5.60
2023-03-05T08:53:40.634Z,5.70
2023-03-05T08:56:08.112Z,5.70
2023-03-05T08:58:35.137Z,5.70
2023-03-05T09:01:03.198Z,5.70
2023-03-05T09:03:30.201Z,5.70
2023-03-05T09:06:06.990Z,5.80
2023-03-05T09:08:34.783Z,5.80
2023-03-05T09:11:04.147Z,5.80
2023-03-05T09:13:31.289Z,5.90
2023-03-05T09:16:04.549Z,5.90
2023-03-05T09:18:32.299Z,6.00
2023-03-05T09:20:59.364Z,6.00
2023-03-05T09:23:26.362Z,6.00
2023-03-05T09:25:53.352Z,6.00
2023-03-05T09:28:20.444Z,6.10
2023-03-05T09:30:47.768Z,6.10
2023-03-05T09:33:15.047Z,6.20
2023-03-05T09:35:42.179Z,6.30
2023-03-05T09:38:09.160Z,6.30
2023-03-05T09:40:58.600Z,6.40
2023-03-05T09:43:43.725Z,6.50
2023-03-05T09:46:32.816Z,6.50
2023-03-05T09:49:41.738Z,6.50
2023-03-05T09:52:40.168Z,6.50
2023-03-05T09:55:36.652Z,6.50
2023-03-05T09:58:16.823Z,6.50
2023-03-05T10:00:54.996Z,6.50
2023-03-05T10:03:48.952Z,6.50
2023-03-05T10:06:32.754Z,6.50
2023-03-05T10:09:21.954Z,6.40
2023-03-05T10:11:49.092Z,6.40
2023-03-05T10:14:30.737Z,6.40
2023-03-05T10:17:06.786Z,6.40
2023-03-05T10:19:39.968Z,6.50
2023-03-05T10:22:22.909Z,6.50
2023-03-05T10:25:14.316Z,6.50
2023-03-05T10:27:55.230Z,6.60
2023-03-05T10:30:39.003Z,6.60
2023-03-05T10:33:13.925Z,6.70
2023-03-05T10:35:58.982Z,6.70
2023-03-05T10:38:32.581Z,6.80
2023-03-05T10:41:22.842Z,6.90
2023-03-05T10:44:03.870Z,7.00
2023-03-05T10:46:36.218Z,7.20
2023-03-05T10:49:30.043Z,7.30
2023-03-05T10:52:13.181Z,7.30
2023-03-05T10:54:42.987Z,7.40
2023-03-05T10:57:13.099Z,7.40
2023-03-05T10:59:48.044Z,7.40
2023-03-05T11:02:15.458Z,7.50
2023-03-05T11:04:42.888Z,7.40
2023-03-05T11:07:15.976Z,7.40
2023-03-05T11:10:04.380Z,7.40
2023-03-05T11:12:37.333Z,7.30
2023-03-05T11:15:10.534Z,7.40
2023-03-05T11:17:47.865Z,7.40
2023-03-05T11:20:27.364Z,7.30
2023-03-05T11:23:25.056Z,7.30
2023-03-05T11:25:52.108Z,7.30
2023-03-05T11:28:32.265Z,7.30
2023-03-05T11:31:04.041Z,7.30
2023-03-05T11:33:32.150Z,7.20
2023-03-05T11:36:13.178Z,7.20
2023-03-05T11:39:09.155Z,7.20
2023-03-05T11:41:53.402Z,7.10
2023-03-05T11:44:30.218Z,7.00
2023-03-05T11:47:21.237Z,7.00
2023-03-05T11:49:51.459Z,7.00
2023-03-05T11:52:31.175Z,7.00
2023-03-05T11:55:19.725Z,7.00
2023-03-05T11:57:50.741Z,7.00
2023-03-05T12:00:21.800Z,7.00
2023-03-05T12:02:53.306Z,7.00
2023-03-05T12:05:21.525Z,7.00
2023-03-05T12:07:53.026Z,7.10
2023-03-05T12:10:23.841Z,7.10
2023-03-05T12:13:17.047Z,7.10
2023-03-05T12:16:09.290Z,7.10
2023-03-05T12:19:13.789Z,7.20
2023-03-05T12:21:43.327Z,7.20
2023-03-05T12:24:28.210Z,7.20
2023-03-05T12:27:04.742Z,7.20
2023-03-05T12:29:49.150Z,7.20
2023-03-05T12:32:35.397Z,7.20
2023-03-05T12:35:25.460Z,7.30
2023-03-05T12:37:52.564Z,7.30
2023-03-05T12:40:34.525Z,7.30
2023-03-05T12:43:26.138Z,7.30
2023-03-05T12:46:26.197Z,7.40
2023-03-05T12:48:54.369Z,7.40
2023-03-05T12:51:36.486Z,7.40
2023-03-05T12:54:27.995Z,7.40
2023-03-05T12:56:57.653Z,7.40
2023-03-05T12:59:36.586Z,7.50
2023-03-05T13:02:16.642Z,7.40
2023-03-05T13:04:46.417Z,7.40
2023-03-05T13:07:18.786Z,7.40
2023-03-05T13:09:57.402Z,7.40
2023-03-05T13:12:27.265Z,7.40
2023-03-05T13:15:04.570Z,7.30
2023-03-05T13:18:01.247Z,7.30
2023-03-05T13:20:40.742Z,7.30
2023-03-05T13:23:20.740Z,7.30
2023-03-05T13:26:21.464Z,7.20
2023-03-05T13:29:07.694Z,7.20
2023-03-05T13:31:49.107Z,7.20
2023-03-05T13:34:22.156Z,7.10
2023-03-05T13:37:02.164Z,7.10
2023-03-05T13:39:33.237Z,7.00
2023-03-05T13:42:07.406Z,7.00
2023-03-05T13:44:35.069Z,7.00
2023-03-05T13:47:29.799Z,6.90
2023-03-05T13:50:00.264Z,6.90
2023-03-05T13:52:30.927Z,6.90
2023-03-05T13:54:59.627Z,6.90
2023-03-05T13:57:33.091Z,6.90
2023-03-05T14:00:00.960Z,6.80
2023-03-05T14:02:32.488Z,6.70
2023-03-05T14:05:00.653Z,6.70
2023-03-05T14:07:27.580Z,6.60
2023-03-05T14:09:56.949Z,6.70
2023-03-05T14:12:30.527Z,6.60
2023-03-05T14:14:59.798Z,6.60
2023-03-05T14:17:37.722Z,6.60
2023-03-05T14:20:14.752Z,6.60
2023-03-05T14:22:45.144Z,6.60
2023-03-05T14:25:35.179Z,6.60
2023-03-05T14:28:05.336Z,6.60
2023-03-05T14:30:36.097Z,6.60
2023-03-05T14:33:04.049Z,6.60
2023-03-05T14:35:31.364Z,6.60
2023-03-05T14:37:59.835Z,6.60
2023-03-05T14:40:33.985Z,6.60
2023-03-05T14:43:06.885Z,6.60
2023-03-05T14:45:39.524Z,6.60
2023-03-05T14:48:08.565Z,6.60
2023-03-05T14:50:44.171Z,6.60
2023-03-05T14:53:17.896Z,6.60
2023-03-05T14:55:48.956Z,6.70
2023-03-05T14:58:20.347Z,6.70
2023-03-05T15:00:50.987Z,6.60
2023-03-05T15:03:20.315Z,6.70
2023-03-05T15:05:50.208Z,6.70
2023-03-05T15:08:29.126Z,6.70
2023-03-05T15:10:56.471Z,6.70
2023-03-05T15:13:23.678Z,6.70
2023-03-05T15:15:52.525Z,6.70
2023-03-05T15:18:21.370Z,6.80
2023-03-05T15:20:49.522Z,6.80
2023-03-05T15:23:16.549Z,6.80
2023-03-05T15:25:43.696Z,6.80
2023-03-05T15:28:10.986Z,6.90
2023-03-05T15:30:45.783Z,6.90
2023-03-05T15:33:17.160Z,6.90
2023-03-05T15:35:48.588Z,6.90
2023-03-05T15:38:16.754Z,6.90
2023-03-05T15:40:44.337Z,6.90
2023-03-05T15:43:11.632Z,6.90
2023-03-05T15:45:38.635Z,6.90
2023-03-05T15:48:06.147Z,6.90
2023-03-05T15:50:33.437Z,6.90
2023-03-05T15:53:00.748Z,6.90
2023-03-05T15:55:27.780Z,6.90
2023-03-05T15:57:54.973Z,6.90
2023-03-05T16:00:29.842Z,6.90
2023-03-05T16:02:57.049Z,6.90
2023-03-05T16:05:24.294Z,6.90
2023-03-05T16:07:52.532Z,6.90
2023-03-05T16:10:25.399Z,6.90
2023-03-05T16:13:14.974Z,6.80
2023-03-05T16:15:43.238Z,6.80
2023-03-05T16:18:13.894Z,6.90
2023-03-05T16:20:41.031Z,6.80
2023-03-05T16:23:08.204Z,6.80
2023-03-05T16:25:35.409Z,6.70
2023-03-05T16:28:02.668Z,6.70
2023-03-05T16:30:30.664Z,6.70
2023-03-05T16:32:57.938Z,6.70
2023-03-05T16:35:25.319Z,6.60
2023-03-05T16:37:52.623Z,6.60
2023-03-05T16:40:19.981Z,6.60
2023-03-05T16:42:47.002Z,6.60
2023-03-05T16:45:14.164Z,6.60
2023-03-05T16:47:41.330Z,6.60
2023-03-05T16:50:11.356Z,6.50
2023-03-05T16:52:39.563Z,6.50
2023-03-05T16:55:07.442Z,6.40
2023-03-05T16:57:41.106Z,6.40
2023-03-05T17:00:11.669Z,6.30
2023-03-05T17:02:39.859Z,6.30
2023-03-05T17:05:07.552Z,6.30
2023-03-05T17:07:35.551Z,6.20
2023-03-05T17:10:02.660Z,6.10
2023-03-05T17:12:30.826Z,6.10
2023-03-05T17:14:57.888Z,6.10
2023-03-05T17:17:24.775Z,6.10
2023-03-05T17:19:52.793Z,6.00
2023-03-05T17:22:19.878Z,6.00
2023-03-05T17:24:48.113Z,6.10
2023-03-05T17:27:18.691Z,6.10
2023-03-05T17:29:46.951Z,6.10
2023-03-05T17:32:14.351Z,6.10
2023-03-05T17:34:43.347Z,6.10
2023-03-05T17:37:11.772Z,6.10
2023-03-05T17:39:39.803Z,6.10
2023-03-05T17:42:07.327Z,6.10
2023-03-05T17:44:35.419Z,6.10
2023-03-05T17:47:02.607Z,6.10
2023-03-05T17:49:29.700Z,6.10
2023-03-05T17:51:57.770Z,6.10
2023-03-05T17:54:24.806Z,6.20
2023-03-05T17:56:56.434Z,6.20
2023-03-05T17:59:24.517Z,6.20
2023-03-05T18:01:51.694Z,6.20
2023-03-05T18:04:19.515Z,6.10
2023-03-05T18:06:46.714Z,6.10
2023-03-05T18:09:14.689Z,6.10
2023-03-05T18:11:41.693Z,6.10
2023-03-05T18:14:08.879Z,6.10
2023-03-05T18:16:36.044Z,6.10
2023-03-05T18:19:03.389Z,6.10
2023-03-05T18:21:30.636Z,6.10
2023-03-05T18:23:57.668Z,6.10
2023-03-05T18:26:24.806Z,6.10
2023-03-05T18:28:51.838Z,6.10
2023-03-05T18:31:19.306Z,6.10
2023-03-05T18:33:46.415Z,6.10
2023-03-05T18:36:15.102Z,6.20
2023-03-05T18:38:42.351Z,6.20
2023-03-05T18:41:13.292Z,6.10
2023-03-05T18:43:40.948Z,6.20
2023-03-05T18:46:08.625Z,6.20
2023-03-05T18:48:35.744Z,6.20
2023-03-05T18:51:03.659Z,6.20
2023-03-05T18:53:30.767Z,6.10
2023-03-05T18:55:57.821Z,6.20
2023-03-05T18:58:26.082Z,6.10
2023-03-05T19:00:53.307Z,6.10
2023-03-05T19:03:22.583Z,6.10
2023-03-05T19:05:53.229Z,6.10
2023-03-05T19:08:20.622Z,6.10
2023-03-05T19:10:48.832Z,6.10
2023-03-05T19:13:40.111Z,6.10
2023-03-05T19:16:19.513Z,6.10
2023-03-05T19:19:13.811Z,6.10
2023-03-05T19:21:47.409Z,6.10
2023-03-05T19:24:16.613Z,6.10
2023-03-05T19:26:44.444Z,6.10
2023-03-05T19:29:15.504Z,6.00
2023-03-05T19:31:42.659Z,6.00
2023-03-05T19:34:13.690Z,6.00
2023-03-05T19:36:40.812Z,6.00
2023-03-05T19:39:09.446Z,6.00
2023-03-05T19:41:37.781Z,6.00
2023-03-05T19:44:06.773Z,6.00
2023-03-05T19:46:35.934Z,6.00
2023-03-05T19:49:07.207Z,6.00
2023-03-05T19:51:34.435Z,6.00
2023-03-05T19:54:03.321Z,6.00
2023-03-05T19:56:31.417Z,6.00
2023-03-05T19:59:01.614Z,6.00
2023-03-05T20:01:30.777Z,6.00
2023-03-05T20:04:02.755Z,6.00
2023-03-05T20:06:31.428Z,6.00
2023-03-05T20:08:59.015Z,6.00
2023-03-05T20:11:26.857Z,6.00
2023-03-05T20:13:56.684Z,6.00
2023-03-05T20:16:26.112Z,6.00
2023-03-05T20:18:54.999Z,6.00
2023-03-05T20:21:25.336Z,6.00
2023-03-05T20:23:54.517Z,6.00
2023-03-05T20:26:25.834Z,6.00
2023-03-05T20:28:53.788Z,6.10
2023-03-05T20:31:22.847Z,6.10
2023-03-05T20:33:50.725Z,6.10
2023-03-05T20:36:18.668Z,6.10
2023-03-05T20:38:46.367Z,6.10
2023-03-05T20:41:16.760Z,6.10
2023-03-05T20:43:46.397Z,6.10
2023-03-05T20:46:28.846Z,6.20
2023-03-05T20:49:01.188Z,6.20
2023-03-05T20:51:35.164Z,6.20
2023-03-05T20:54:06.533Z,6.20
2023-03-05T20:56:35.899Z,6.20
2023-03-05T20:59:05.047Z,6.20
2023-03-05T21:01:34.993Z,6.30
2023-03-05T21:04:02.946Z,6.20
2023-03-05T21:06:32.489Z,6.30
2023-03-05T21:09:00.150Z,6.20
2023-03-05T21:11:27.800Z,6.20
2023-03-05T21:13:54.728Z,6.20
2023-03-05T21:16:25.010Z,6.20
2023-03-05T21:18:52.896Z,6.20
2023-03-05T21:21:19.929Z,6.20
2023-03-05T21:23:47.340Z,6.20
2023-03-05T21:26:14.954Z,6.20
2023-03-05T21:28:42.577Z,6.20
2023-03-05T21:31:15.005Z,6.20
2023-03-05T21:33:52.347Z,6.20
2023-03-05T21:36:20.584Z,6.10
2023-03-05T21:38:48.963Z,6.10
2023-03-05T21:41:18.133Z,6.10
2023-03-05T21:43:45.245Z,6.10
2023-03-05T21:46:12.480Z,6.10
2023-03-05T21:48:39.880Z,6.10
2023-03-05T21:51:08.726Z,6.10
2023-03-05T21:53:36.402Z,6.10
2023-03-05T21:56:19.480Z,6.10
2023-03-05T21:58:58.495Z,6.10
2023-03-05T22:01:28.044Z,6.10
2023-03-05T22:03:55.222Z,6.00
2023-03-05T22:06:22.415Z,6.00
2023-03-05T22:08:49.649Z,6.00
2023-03-05T22:11:21.893Z,6.00
2023-03-05T22:13:49.319Z,6.00
2023-03-05T22:16:27.419Z,6.00
2023-03-05T22:18:55.877Z,6.00
2023-03-05T22:21:26.993Z,6.00
2023-03-05T22:23:57.241Z,6.00
2023-03-05T22:26:35.520Z,5.90
2023-03-05T22:29:03.674Z,5.90
2023-03-05T22:31:31.870Z,5.80
2023-03-05T22:34:00.087Z,5.80
2023-03-05T22:36:27.355Z,5.80
2023-03-05T22:38:54.562Z,5.80
2023-03-05T22:41:21.978Z,5.70
2023-03-05T22:43:51.642Z,5.70
2023-03-05T22:46:21.990Z,5.70
2023-03-05T22:48:49.759Z,5.70
2023-03-05T22:51:18.091Z,5.70
2023-03-05T22:53:46.110Z,5.70
2023-03-05T22:56:15.680Z,5.70
2023-03-05T22:58:43.283Z,5.70
2023-03-05T23:01:18.488Z,5.70
2023-03-05T23:03:45.643Z,5.70
2023-03-05T23:06:12.875Z,5.70
2023-03-05T23:08:39.817Z,5.70
2023-03-05T23:11:11.782Z,5.70
2023-03-05T23:13:42.309Z,5.70
2023-03-05T23:16:11.526Z,5.70
2023-03-05T23:18:38.709Z,5.70
2023-03-05T23:21:05.980Z,5.70
2023-03-05T23:23:33.313Z,5.60
2023-03-05T23:26:00.402Z,5.60
2023-03-05T23:28:27.460Z,5.60
2023-03-05T23:30:54.454Z,5.70
2023-03-05T23:33:23.920Z,5.70
2023-03-05T23:35:56.839Z,5.70
2023-03-05T23:38:24.903Z,5.70
2023-03-05T23:40:54.232Z,5.70
2023-03-05T23:43:24.698Z,5.70
2023-03-05T23:45:56.895Z,5.70
2023-03-05T23:48:25.685Z,5.60
2023-03-05T23:50:53.230Z,5.60
2023-03-05T23:53:26.634Z,5.60
2023-03-05T23:55:54.513Z,5.60
2023-03-05T23:58:22.142Z,5.60
